sensor_id;sensor_type;location;lat;lon;timestamp;P1;durP1;ratioP1;P2;durP2;ratioP2
36815;SDS011;22760;51.910;4.474;2022-07-24T00:00:58;20.23;;;9.75;;
36815;SDS011;22760;51.910;4.474;2022-07-24T00:03:26;15.07;;;9.52;;
36815;SDS011;22760;51.910;4.474;2022-07-24T00:05:53;17.15;;;10.85;;
36815;SDS011;22760;51.910;4.474;2022-07-24T00:08:20;16.42;;;9.40;;
36815;SDS011;22760;51.910;4.474;2022-07-24T00:10:47;15.07;;;9.73;;
36815;SDS011;22760;51.910;4.474;2022-07-24T00:13:14;19.35;;;9.98;;
36815;SDS011;22760;51.910;4.474;2022-07-24T00:15:41;18.15;;;11.23;;
36815;SDS011;22760;51.910;4.474;2022-07-24T00:18:07;18.83;;;11.93;;
36815;SDS011;22760;51.910;4.474;2022-07-24T00:20:36;16.67;;;10.02;;
36815;SDS011;22760;51.910;4.474;2022-07-24T00:23:03;16.42;;;9.73;;
36815;SDS011;22760;51.910;4.474;2022-07-24T00:25:30;15.32;;;9.68;;
36815;SDS011;22760;51.910;4.474;2022-07-24T00:27:57;20.23;;;11.57;;
36815;SDS011;22760;51.910;4.474;2022-07-24T00:30:23;18.63;;;10.82;;
36815;SDS011;22760;51.910;4.474;2022-07-24T00:32:50;18.38;;;11.07;;
36815;SDS011;22760;51.910;4.474;2022-07-24T00:35:17;21.55;;;10.98;;
36815;SDS011;22760;51.910;4.474;2022-07-24T00:37:45;18.42;;;12.95;;
36815;SDS011;22760;51.910;4.474;2022-07-24T00:40:12;22.58;;;11.23;;
36815;SDS011;22760;51.910;4.474;2022-07-24T00:42:40;15.40;;;10.20;;
36815;SDS011;22760;51.910;4.474;2022-07-24T00:45:08;21.30;;;11.10;;
36815;SDS011;22760;51.910;4.474;2022-07-24T00:47:35;15.55;;;10.35;;
36815;SDS011;22760;51.910;4.474;2022-07-24T00:50:02;17.00;;;10.45;;
36815;SDS011;22760;51.910;4.474;2022-07-24T00:52:30;14.73;;;9.77;;
36815;SDS011;22760;51.910;4.474;2022-07-24T00:54:59;24.70;;;12.15;;
36815;SDS011;22760;51.910;4.474;2022-07-24T00:57:26;16.73;;;10.23;;
36815;SDS011;22760;51.910;4.474;2022-07-24T00:59:53;16.42;;;10.77;;
36815;SDS011;22760;51.910;4.474;2022-07-24T01:02:19;16.65;;;9.48;;
36815;SDS011;22760;51.910;4.474;2022-07-24T01:04:46;18.08;;;11.95;;
36815;SDS011;22760;51.910;4.474;2022-07-24T01:07:14;19.05;;;10.50;;
36815;SDS011;22760;51.910;4.474;2022-07-24T01:09:41;15.93;;;10.60;;
36815;SDS011;22760;51.910;4.474;2022-07-24T01:12:09;16.08;;;11.23;;
36815;SDS011;22760;51.910;4.474;2022-07-24T01:14:36;18.65;;;12.23;;
36815;SDS011;22760;51.910;4.474;2022-07-24T01:17:03;16.92;;;11.27;;
36815;SDS011;22760;51.910;4.474;2022-07-24T01:19:30;19.15;;;11.43;;
36815;SDS011;22760;51.910;4.474;2022-07-24T01:21:58;18.38;;;9.73;;
36815;SDS011;22760;51.910;4.474;2022-07-24T01:24:25;20.92;;;11.25;;
36815;SDS011;22760;51.910;4.474;2022-07-24T01:26:52;16.67;;;10.20;;
36815;SDS011;22760;51.910;4.474;2022-07-24T01:29:19;22.25;;;11.23;;
36815;SDS011;22760;51.910;4.474;2022-07-24T01:31:45;19.83;;;9.48;;
36815;SDS011;22760;51.910;4.474;2022-07-24T01:34:12;13.25;;;8.90;;
36815;SDS011;22760;51.910;4.474;2022-07-24T01:36:39;17.48;;;9.50;;
36815;SDS011;22760;51.910;4.474;2022-07-24T01:39:07;15.63;;;9.95;;
36815;SDS011;22760;51.910;4.474;2022-07-24T01:41:34;18.95;;;8.82;;
36815;SDS011;22760;51.910;4.474;2022-07-24T01:44:01;14.75;;;8.10;;
36815;SDS011;22760;51.910;4.474;2022-07-24T01:46:28;20.17;;;10.75;;
36815;SDS011;22760;51.910;4.474;2022-07-24T01:48:55;12.88;;;7.75;;
36815;SDS011;22760;51.910;4.474;2022-07-24T01:51:22;19.55;;;9.82;;
36815;SDS011;22760;51.910;4.474;2022-07-24T01:53:48;17.10;;;9.48;;
36815;SDS011;22760;51.910;4.474;2022-07-24T01:56:17;16.08;;;9.20;;
36815;SDS011;22760;51.910;4.474;2022-07-24T01:58:43;15.43;;;8.43;;
36815;SDS011;22760;51.910;4.474;2022-07-24T02:01:10;14.25;;;8.52;;
36815;SDS011;22760;51.910;4.474;2022-07-24T02:03:37;17.10;;;8.32;;
36815;SDS011;22760;51.910;4.474;2022-07-24T02:06:04;13.90;;;8.32;;
36815;SDS011;22760;51.910;4.474;2022-07-24T02:08:30;13.45;;;7.53;;
36815;SDS011;22760;51.910;4.474;2022-07-24T02:10:57;13.75;;;7.97;;
36815;SDS011;22760;51.910;4.474;2022-07-24T02:13:26;18.10;;;8.20;;
36815;SDS011;22760;51.910;4.474;2022-07-24T02:15:52;13.05;;;7.28;;
36815;SDS011;22760;51.910;4.474;2022-07-24T02:18:19;14.23;;;8.65;;
36815;SDS011;22760;51.910;4.474;2022-07-24T02:20:46;15.88;;;7.13;;
36815;SDS011;22760;51.910;4.474;2022-07-24T02:23:13;15.18;;;8.45;;
36815;SDS011;22760;51.910;4.474;2022-07-24T02:25:42;13.48;;;7.65;;
36815;SDS011;22760;51.910;4.474;2022-07-24T02:28:10;13.93;;;8.27;;
36815;SDS011;22760;51.910;4.474;2022-07-24T02:30:38;13.98;;;7.45;;
36815;SDS011;22760;51.910;4.474;2022-07-24T02:33:06;14.50;;;8.40;;
36815;SDS011;22760;51.910;4.474;2022-07-24T02:35:33;19.10;;;8.73;;
36815;SDS011;22760;51.910;4.474;2022-07-24T02:38:00;16.65;;;7.90;;
36815;SDS011;22760;51.910;4.474;2022-07-24T02:40:27;14.88;;;7.18;;
36815;SDS011;22760;51.910;4.474;2022-07-24T02:42:54;10.73;;;6.68;;
36815;SDS011;22760;51.910;4.474;2022-07-24T02:45:22;12.65;;;7.13;;
36815;SDS011;22760;51.910;4.474;2022-07-24T02:47:51;9.95;;;6.05;;
36815;SDS011;22760;51.910;4.474;2022-07-24T02:50:19;11.18;;;5.93;;
36815;SDS011;22760;51.910;4.474;2022-07-24T02:52:47;17.30;;;5.97;;
36815;SDS011;22760;51.910;4.474;2022-07-24T02:55:15;11.73;;;5.75;;
36815;SDS011;22760;51.910;4.474;2022-07-24T02:57:42;10.35;;;5.60;;
36815;SDS011;22760;51.910;4.474;2022-07-24T03:00:10;11.27;;;5.75;;
36815;SDS011;22760;51.910;4.474;2022-07-24T03:02:38;9.68;;;5.30;;
36815;SDS011;22760;51.910;4.474;2022-07-24T03:05:07;11.48;;;5.57;;
36815;SDS011;22760;51.910;4.474;2022-07-24T03:07:34;12.15;;;5.90;;
36815;SDS011;22760;51.910;4.474;2022-07-24T03:10:02;8.50;;;5.40;;
36815;SDS011;22760;51.910;4.474;2022-07-24T03:12:29;12.30;;;5.40;;
36815;SDS011;22760;51.910;4.474;2022-07-24T03:14:56;8.60;;;5.40;;
36815;SDS011;22760;51.910;4.474;2022-07-24T03:17:22;9.65;;;5.78;;
36815;SDS011;22760;51.910;4.474;2022-07-24T03:19:49;11.98;;;5.15;;
36815;SDS011;22760;51.910;4.474;2022-07-24T03:22:17;10.93;;;4.95;;
36815;SDS011;22760;51.910;4.474;2022-07-24T03:24:44;12.45;;;5.75;;
36815;SDS011;22760;51.910;4.474;2022-07-24T03:27:11;13.52;;;4.95;;
36815;SDS011;22760;51.910;4.474;2022-07-24T03:29:37;11.82;;;5.30;;
36815;SDS011;22760;51.910;4.474;2022-07-24T03:32:05;9.48;;;4.50;;
36815;SDS011;22760;51.910;4.474;2022-07-24T03:34:32;8.90;;;5.47;;
36815;SDS011;22760;51.910;4.474;2022-07-24T03:36:58;10.65;;;4.65;;
36815;SDS011;22760;51.910;4.474;2022-07-24T03:39:26;10.32;;;5.28;;
36815;SDS011;22760;51.910;4.474;2022-07-24T03:41:53;13.20;;;5.28;;
36815;SDS011;22760;51.910;4.474;2022-07-24T03:44:20;11.02;;;4.20;;
36815;SDS011;22760;51.910;4.474;2022-07-24T03:46:47;8.07;;;4.45;;
36815;SDS011;22760;51.910;4.474;2022-07-24T03:49:13;11.65;;;4.88;;
36815;SDS011;22760;51.910;4.474;2022-07-24T03:51:40;7.40;;;4.15;;
36815;SDS011;22760;51.910;4.474;2022-07-24T03:54:07;7.45;;;4.07;;
36815;SDS011;22760;51.910;4.474;2022-07-24T03:56:35;7.35;;;4.22;;
36815;SDS011;22760;51.910;4.474;2022-07-24T03:59:02;7.68;;;4.38;;
36815;SDS011;22760;51.910;4.474;2022-07-24T04:01:29;7.18;;;4.50;;
36815;SDS011;22760;51.910;4.474;2022-07-24T04:03:55;10.80;;;4.57;;
36815;SDS011;22760;51.910;4.474;2022-07-24T04:06:23;6.30;;;3.92;;
36815;SDS011;22760;51.910;4.474;2022-07-24T04:08:49;10.10;;;4.22;;
36815;SDS011;22760;51.910;4.474;2022-07-24T04:11:16;6.13;;;4.10;;
36815;SDS011;22760;51.910;4.474;2022-07-24T04:13:44;5.32;;;3.88;;
36815;SDS011;22760;51.910;4.474;2022-07-24T04:16:11;10.95;;;5.15;;
36815;SDS011;22760;51.910;4.474;2022-07-24T04:18:38;7.57;;;3.92;;
36815;SDS011;22760;51.910;4.474;2022-07-24T04:21:05;6.78;;;3.00;;
36815;SDS011;22760;51.910;4.474;2022-07-24T04:23:32;6.68;;;3.42;;
36815;SDS011;22760;51.910;4.474;2022-07-24T04:25:59;6.95;;;3.63;;
36815;SDS011;22760;51.910;4.474;2022-07-24T04:28:26;5.65;;;3.65;;
36815;SDS011;22760;51.910;4.474;2022-07-24T04:30:54;6.53;;;3.22;;
36815;SDS011;22760;51.910;4.474;2022-07-24T04:33:21;5.97;;;3.60;;
36815;SDS011;22760;51.910;4.474;2022-07-24T04:35:48;8.85;;;3.55;;
36815;SDS011;22760;51.910;4.474;2022-07-24T04:38:14;6.63;;;3.40;;
36815;SDS011;22760;51.910;4.474;2022-07-24T04:40:42;8.13;;;4.35;;
36815;SDS011;22760;51.910;4.474;2022-07-24T04:43:09;9.23;;;4.22;;
36815;SDS011;22760;51.910;4.474;2022-07-24T04:45:36;4.35;;;3.40;;
36815;SDS011;22760;51.910;4.474;2022-07-24T04:48:05;8.27;;;4.68;;
36815;SDS011;22760;51.910;4.474;2022-07-24T04:50:32;15.13;;;4.93;;
36815;SDS011;22760;51.910;4.474;2022-07-24T04:52:59;7.07;;;4.13;;
36815;SDS011;22760;51.910;4.474;2022-07-24T04:55:26;12.02;;;5.38;;
36815;SDS011;22760;51.910;4.474;2022-07-24T04:57:53;9.30;;;5.43;;
36815;SDS011;22760;51.910;4.474;2022-07-24T05:00:20;8.60;;;5.82;;
36815;SDS011;22760;51.910;4.474;2022-07-24T05:02:46;10.70;;;5.70;;
36815;SDS011;22760;51.910;4.474;2022-07-24T05:05:15;10.30;;;5.80;;
36815;SDS011;22760;51.910;4.474;2022-07-24T05:07:41;10.57;;;5.50;;
36815;SDS011;22760;51.910;4.474;2022-07-24T05:10:08;8.13;;;4.85;;
36815;SDS011;22760;51.910;4.474;2022-07-24T05:12:35;11.75;;;5.25;;
36815;SDS011;22760;51.910;4.474;2022-07-24T05:15:02;9.77;;;4.63;;
36815;SDS011;22760;51.910;4.474;2022-07-24T05:17:30;6.13;;;4.25;;
36815;SDS011;22760;51.910;4.474;2022-07-24T05:19:56;9.65;;;4.70;;
36815;SDS011;22760;51.910;4.474;2022-07-24T05:22:24;9.02;;;4.45;;
36815;SDS011;22760;51.910;4.474;2022-07-24T05:24:51;5.53;;;4.03;;
36815;SDS011;22760;51.910;4.474;2022-07-24T05:27:18;6.13;;;3.53;;
36815;SDS011;22760;51.910;4.474;2022-07-24T05:29:45;6.55;;;4.18;;
36815;SDS011;22760;51.910;4.474;2022-07-24T05:32:12;8.20;;;3.53;;
36815;SDS011;22760;51.910;4.474;2022-07-24T05:34:39;6.28;;;3.85;;
36815;SDS011;22760;51.910;4.474;2022-07-24T05:37:06;7.50;;;4.47;;
36815;SDS011;22760;51.910;4.474;2022-07-24T05:39:34;5.20;;;3.60;;
36815;SDS011;22760;51.910;4.474;2022-07-24T05:42:01;7.07;;;3.58;;
36815;SDS011;22760;51.910;4.474;2022-07-24T05:44:28;9.65;;;3.60;;
36815;SDS011;22760;51.910;4.474;2022-07-24T05:46:54;4.97;;;3.47;;
36815;SDS011;22760;51.910;4.474;2022-07-24T05:49:21;3.97;;;3.22;;
36815;SDS011;22760;51.910;4.474;2022-07-24T05:51:48;5.85;;;3.60;;
36815;SDS011;22760;51.910;4.474;2022-07-24T05:54:15;6.75;;;3.75;;
36815;SDS011;22760;51.910;4.474;2022-07-24T05:56:43;7.25;;;3.88;;
36815;SDS011;22760;51.910;4.474;2022-07-24T05:59:10;9.70;;;4.22;;
36815;SDS011;22760;51.910;4.474;2022-07-24T06:01:36;8.10;;;4.05;;
36815;SDS011;22760;51.910;4.474;2022-07-24T06:04:03;8.90;;;3.40;;
36815;SDS011;22760;51.910;4.474;2022-07-24T06:06:30;5.63;;;3.10;;
36815;SDS011;22760;51.910;4.474;2022-07-24T06:08:57;7.70;;;3.75;;
36815;SDS011;22760;51.910;4.474;2022-07-24T06:11:24;6.25;;;3.45;;
36815;SDS011;22760;51.910;4.474;2022-07-24T06:13:52;4.18;;;2.95;;
36815;SDS011;22760;51.910;4.474;2022-07-24T06:16:19;5.70;;;3.22;;
36815;SDS011;22760;51.910;4.474;2022-07-24T06:18:46;3.65;;;2.72;;
36815;SDS011;22760;51.910;4.474;2022-07-24T06:21:12;7.03;;;3.03;;
36815;SDS011;22760;51.910;4.474;2022-07-24T06:23:39;5.75;;;3.28;;
36815;SDS011;22760;51.910;4.474;2022-07-24T06:26:06;6.90;;;3.17;;
36815;SDS011;22760;51.910;4.474;2022-07-24T06:28:33;6.88;;;3.33;;
36815;SDS011;22760;51.910;4.474;2022-07-24T06:31:01;4.63;;;2.80;;
36815;SDS011;22760;51.910;4.474;2022-07-24T06:33:27;6.40;;;3.72;;
36815;SDS011;22760;51.910;4.474;2022-07-24T06:35:54;5.55;;;3.13;;
36815;SDS011;22760;51.910;4.474;2022-07-24T06:38:21;5.85;;;3.25;;
36815;SDS011;22760;51.910;4.474;2022-07-24T06:40:48;5.82;;;3.10;;
36815;SDS011;22760;51.910;4.474;2022-07-24T06:43:15;6.20;;;3.03;;
36815;SDS011;22760;51.910;4.474;2022-07-24T06:45:41;6.70;;;2.95;;
36815;SDS011;22760;51.910;4.474;2022-07-24T06:48:10;5.72;;;2.88;;
36815;SDS011;22760;51.910;4.474;2022-07-24T06:50:37;3.88;;;2.35;;
36815;SDS011;22760;51.910;4.474;2022-07-24T06:53:03;3.25;;;2.40;;
36815;SDS011;22760;51.910;4.474;2022-07-24T06:55:30;3.97;;;2.75;;
36815;SDS011;22760;51.910;4.474;2022-07-24T06:57:57;4.30;;;2.42;;
36815;SDS011;22760;51.910;4.474;2022-07-24T07:00:24;4.70;;;2.42;;
36815;SDS011;22760;51.910;4.474;2022-07-24T07:02:51;6.80;;;2.40;;
36815;SDS011;22760;51.910;4.474;2022-07-24T07:05:19;3.55;;;2.22;;
36815;SDS011;22760;51.910;4.474;2022-07-24T07:07:46;3.67;;;2.25;;
36815;SDS011;22760;51.910;4.474;2022-07-24T07:10:13;3.55;;;2.13;;
36815;SDS011;22760;51.910;4.474;2022-07-24T07:12:40;6.72;;;2.38;;
36815;SDS011;22760;51.910;4.474;2022-07-24T07:15:08;2.92;;;2.17;;
36815;SDS011;22760;51.910;4.474;2022-07-24T07:17:36;2.60;;;2.10;;
36815;SDS011;22760;51.910;4.474;2022-07-24T07:20:04;3.85;;;2.45;;
36815;SDS011;22760;51.910;4.474;2022-07-24T07:22:33;5.20;;;2.42;;
36815;SDS011;22760;51.910;4.474;2022-07-24T07:25:00;3.55;;;2.30;;
36815;SDS011;22760;51.910;4.474;2022-07-24T07:27:27;5.10;;;2.30;;
36815;SDS011;22760;51.910;4.474;2022-07-24T07:29:53;3.20;;;2.13;;
36815;SDS011;22760;51.910;4.474;2022-07-24T07:32:20;2.90;;;2.15;;
36815;SDS011;22760;51.910;4.474;2022-07-24T07:34:47;3.22;;;1.88;;
36815;SDS011;22760;51.910;4.474;2022-07-24T07:37:14;2.67;;;2.03;;
36815;SDS011;22760;51.910;4.474;2022-07-24T07:39:42;4.10;;;2.10;;
36815;SDS011;22760;51.910;4.474;2022-07-24T07:42:09;2.70;;;1.90;;
36815;SDS011;22760;51.910;4.474;2022-07-24T07:44:35;5.82;;;2.25;;
36815;SDS011;22760;51.910;4.474;2022-07-24T07:47:02;4.57;;;2.15;;
36815;SDS011;22760;51.910;4.474;2022-07-24T07:49:29;3.35;;;2.20;;
36815;SDS011;22760;51.910;4.474;2022-07-24T07:51:56;5.28;;;2.05;;
36815;SDS011;22760;51.910;4.474;2022-07-24T07:54:23;3.65;;;2.35;;
36815;SDS011;22760;51.910;4.474;2022-07-24T07:56:51;4.07;;;2.20;;
36815;SDS011;22760;51.910;4.474;2022-07-24T07:59:17;2.45;;;1.73;;
36815;SDS011;22760;51.910;4.474;2022-07-24T08:01:44;3.20;;;2.03;;
36815;SDS011;22760;51.910;4.474;2022-07-24T08:04:11;3.50;;;2.22;;
36815;SDS011;22760;51.910;4.474;2022-07-24T08:06:38;4.35;;;1.83;;
36815;SDS011;22760;51.910;4.474;2022-07-24T08:09:04;2.00;;;1.70;;
36815;SDS011;22760;51.910;4.474;2022-07-24T08:11:32;4.13;;;1.80;;
36815;SDS011;22760;51.910;4.474;2022-07-24T08:14:00;3.13;;;2.30;;
36815;SDS011;22760;51.910;4.474;2022-07-24T08:16:27;3.63;;;1.75;;
36815;SDS011;22760;51.910;4.474;2022-07-24T08:18:54;2.58;;;2.25;;
36815;SDS011;22760;51.910;4.474;2022-07-24T08:21:21;4.57;;;1.88;;
36815;SDS011;22760;51.910;4.474;2022-07-24T08:23:47;5.43;;;1.90;;
36815;SDS011;22760;51.910;4.474;2022-07-24T08:26:15;4.22;;;2.05;;
36815;SDS011;22760;51.910;4.474;2022-07-24T08:28:42;3.92;;;1.98;;
36815;SDS011;22760;51.910;4.474;2022-07-24T08:31:10;2.25;;;1.80;;
36815;SDS011;22760;51.910;4.474;2022-07-24T08:33:38;4.68;;;2.13;;
36815;SDS011;22760;51.910;4.474;2022-07-24T08:36:05;4.72;;;2.40;;
36815;SDS011;22760;51.910;4.474;2022-07-24T08:38:32;3.78;;;1.75;;
36815;SDS011;22760;51.910;4.474;2022-07-24T08:40:59;4.95;;;2.28;;
36815;SDS011;22760;51.910;4.474;2022-07-24T08:43:25;3.58;;;1.90;;
36815;SDS011;22760;51.910;4.474;2022-07-24T08:45:54;3.58;;;2.20;;
36815;SDS011;22760;51.910;4.474;2022-07-24T08:48:22;3.33;;;2.10;;
36815;SDS011;22760;51.910;4.474;2022-07-24T08:50:50;4.10;;;1.88;;
36815;SDS011;22760;51.910;4.474;2022-07-24T08:53:19;2.80;;;2.00;;
36815;SDS011;22760;51.910;4.474;2022-07-24T08:55:46;3.28;;;2.30;;
36815;SDS011;22760;51.910;4.474;2022-07-24T08:58:13;2.65;;;2.17;;
36815;SDS011;22760;51.910;4.474;2022-07-24T09:00:40;3.72;;;2.28;;
36815;SDS011;22760;51.910;4.474;2022-07-24T09:03:07;3.13;;;2.08;;
36815;SDS011;22760;51.910;4.474;2022-07-24T09:05:40;4.05;;;2.30;;
36815;SDS011;22760;51.910;4.474;2022-07-24T09:08:19;2.83;;;1.95;;
36815;SDS011;22760;51.910;4.474;2022-07-24T09:10:53;3.45;;;2.33;;
36815;SDS011;22760;51.910;4.474;2022-07-24T09:13:23;5.28;;;2.33;;
36815;SDS011;22760;51.910;4.474;2022-07-24T09:15:52;3.10;;;2.08;;
36815;SDS011;22760;51.910;4.474;2022-07-24T09:18:26;5.45;;;1.90;;
36815;SDS011;22760;51.910;4.474;2022-07-24T09:20:55;4.15;;;2.25;;
36815;SDS011;22760;51.910;4.474;2022-07-24T09:23:22;6.75;;;2.15;;
36815;SDS011;22760;51.910;4.474;2022-07-24T09:25:50;3.33;;;1.98;;
36815;SDS011;22760;51.910;4.474;2022-07-24T09:28:18;3.88;;;1.98;;
36815;SDS011;22760;51.910;4.474;2022-07-24T09:30:45;2.58;;;1.80;;
36815;SDS011;22760;51.910;4.474;2022-07-24T09:33:16;2.53;;;2.28;;
36815;SDS011;22760;51.910;4.474;2022-07-24T09:35:45;4.30;;;2.13;;
36815;SDS011;22760;51.910;4.474;2022-07-24T09:38:15;2.70;;;2.05;;
36815;SDS011;22760;51.910;4.474;2022-07-24T09:40:43;4.93;;;2.47;;
36815;SDS011;22760;51.910;4.474;2022-07-24T09:43:11;3.05;;;1.80;;
36815;SDS011;22760;51.910;4.474;2022-07-24T09:45:53;3.65;;;1.88;;
36815;SDS011;22760;51.910;4.474;2022-07-24T09:48:22;2.40;;;1.83;;
36815;SDS011;22760;51.910;4.474;2022-07-24T09:50:50;3.70;;;1.92;;
36815;SDS011;22760;51.910;4.474;2022-07-24T09:53:20;4.32;;;1.80;;
36815;SDS011;22760;51.910;4.474;2022-07-24T09:55:56;4.35;;;2.00;;
36815;SDS011;22760;51.910;4.474;2022-07-24T09:58:27;2.15;;;1.85;;
36815;SDS011;22760;51.910;4.474;2022-07-24T10:00:55;5.75;;;2.00;;
36815;SDS011;22760;51.910;4.474;2022-07-24T10:03:24;2.08;;;1.80;;
36815;SDS011;22760;51.910;4.474;2022-07-24T10:05:56;2.33;;;1.80;;
36815;SDS011;22760;51.910;4.474;2022-07-24T10:08:26;7.18;;;2.40;;
36815;SDS011;22760;51.910;4.474;2022-07-24T10:10:53;3.05;;;2.10;;
36815;SDS011;22760;51.910;4.474;2022-07-24T10:13:21;3.20;;;1.77;;
36815;SDS011;22760;51.910;4.474;2022-07-24T10:15:53;9.05;;;2.30;;
36815;SDS011;22760;51.910;4.474;2022-07-24T10:18:38;3.35;;;2.10;;
36815;SDS011;22760;51.910;4.474;2022-07-24T10:21:13;2.45;;;1.90;;
36815;SDS011;22760;51.910;4.474;2022-07-24T10:23:47;4.97;;;2.15;;
36815;SDS011;22760;51.910;4.474;2022-07-24T10:26:39;4.80;;;2.28;;
36815;SDS011;22760;51.910;4.474;2022-07-24T10:29:08;3.28;;;1.90;;
36815;SDS011;22760;51.910;4.474;2022-07-24T10:31:36;4.30;;;2.13;;
36815;SDS011;22760;51.910;4.474;2022-07-24T10:34:05;4.38;;;2.10;;
36815;SDS011;22760;51.910;4.474;2022-07-24T10:36:39;2.80;;;2.30;;
36815;SDS011;22760;51.910;4.474;2022-07-24T10:39:13;8.73;;;2.80;;
36815;SDS011;22760;51.910;4.474;2022-07-24T10:41:48;5.43;;;2.30;;
36815;SDS011;22760;51.910;4.474;2022-07-24T10:44:26;5.95;;;2.50;;
36815;SDS011;22760;51.910;4.474;2022-07-24T10:47:04;3.33;;;1.83;;
36815;SDS011;22760;51.910;4.474;2022-07-24T10:49:33;5.78;;;3.00;;
36815;SDS011;22760;51.910;4.474;2022-07-24T10:52:01;5.13;;;2.33;;
36815;SDS011;22760;51.910;4.474;2022-07-24T10:54:30;7.13;;;2.45;;
36815;SDS011;22760;51.910;4.474;2022-07-24T10:56:57;5.47;;;2.33;;
36815;SDS011;22760;51.910;4.474;2022-07-24T10:59:31;6.00;;;2.58;;
36815;SDS011;22760;51.910;4.474;2022-07-24T11:11:07;4.68;;;2.30;;
36815;SDS011;22760;51.910;4.474;2022-07-24T11:13:39;6.63;;;2.40;;
36815;SDS011;22760;51.910;4.474;2022-07-24T11:16:23;3.65;;;2.10;;
36815;SDS011;22760;51.910;4.474;2022-07-24T11:22:01;5.32;;;2.38;;
36815;SDS011;22760;51.910;4.474;2022-07-24T11:24:34;4.53;;;2.17;;
36815;SDS011;22760;51.910;4.474;2022-07-24T11:27:07;3.35;;;2.05;;
36815;SDS011;22760;51.910;4.474;2022-07-24T11:29:42;6.30;;;2.70;;
36815;SDS011;22760;51.910;4.474;2022-07-24T11:32:09;6.10;;;2.90;;
36815;SDS011;22760;51.910;4.474;2022-07-24T11:34:39;3.87;;;2.27;;
36815;SDS011;22760;51.910;4.474;2022-07-24T11:37:10;6.15;;;2.47;;
36815;SDS011;22760;51.910;4.474;2022-07-24T11:39:38;4.43;;;2.30;;
36815;SDS011;22760;51.910;4.474;2022-07-24T11:42:08;5.32;;;2.50;;
36815;SDS011;22760;51.910;4.474;2022-07-24T11:44:36;5.15;;;2.35;;
36815;SDS011;22760;51.910;4.474;2022-07-24T11:47:05;3.95;;;2.38;;
36815;SDS011;22760;51.910;4.474;2022-07-24T11:52:05;2.83;;;2.08;;
36815;SDS011;22760;51.910;4.474;2022-07-24T11:54:32;3.42;;;2.10;;
36815;SDS011;22760;51.910;4.474;2022-07-24T11:56:59;5.15;;;2.03;;
36815;SDS011;22760;51.910;4.474;2022-07-24T11:59:27;5.65;;;1.88;;
36815;SDS011;22760;51.910;4.474;2022-07-24T12:01:55;4.47;;;2.58;;
36815;SDS011;22760;51.910;4.474;2022-07-24T12:04:28;3.63;;;2.10;;
36815;SDS011;22760;51.910;4.474;2022-07-24T12:06:55;6.65;;;2.25;;
36815;SDS011;22760;51.910;4.474;2022-07-24T12:09:22;3.30;;;1.88;;
36815;SDS011;22760;51.910;4.474;2022-07-24T12:11:48;3.50;;;1.92;;
36815;SDS011;22760;51.910;4.474;2022-07-24T12:14:17;2.65;;;1.85;;
36815;SDS011;22760;51.910;4.474;2022-07-24T12:16:52;3.45;;;1.98;;
36815;SDS011;22760;51.910;4.474;2022-07-24T12:19:20;7.30;;;2.35;;
36815;SDS011;22760;51.910;4.474;2022-07-24T12:21:49;4.00;;;2.22;;
36815;SDS011;22760;51.910;4.474;2022-07-24T12:24:17;3.30;;;2.10;;
36815;SDS011;22760;51.910;4.474;2022-07-24T12:26:49;4.65;;;2.10;;
36815;SDS011;22760;51.910;4.474;2022-07-24T12:29:19;5.13;;;2.40;;
36815;SDS011;22760;51.910;4.474;2022-07-24T12:31:47;3.47;;;2.00;;
36815;SDS011;22760;51.910;4.474;2022-07-24T12:34:17;5.43;;;2.10;;
36815;SDS011;22760;51.910;4.474;2022-07-24T12:36:44;4.75;;;2.20;;
36815;SDS011;22760;51.910;4.474;2022-07-24T12:39:11;4.82;;;2.03;;
36815;SDS011;22760;51.910;4.474;2022-07-24T12:41:42;5.90;;;2.15;;
36815;SDS011;22760;51.910;4.474;2022-07-24T12:44:10;4.63;;;2.08;;
36815;SDS011;22760;51.910;4.474;2022-07-24T12:46:37;5.55;;;2.35;;
36815;SDS011;22760;51.910;4.474;2022-07-24T12:49:06;4.43;;;2.45;;
36815;SDS011;22760;51.910;4.474;2022-07-24T12:51:45;4.18;;;2.60;;
36815;SDS011;22760;51.910;4.474;2022-07-24T12:54:16;9.50;;;2.80;;
36815;SDS011;22760;51.910;4.474;2022-07-24T12:56:44;2.95;;;2.15;;
36815;SDS011;22760;51.910;4.474;2022-07-24T12:59:22;3.55;;;2.13;;
36815;SDS011;22760;51.910;4.474;2022-07-24T13:01:50;5.45;;;2.50;;
36815;SDS011;22760;51.910;4.474;2022-07-24T13:04:19;5.35;;;2.30;;
36815;SDS011;22760;51.910;4.474;2022-07-24T13:06:49;5.47;;;2.33;;
36815;SDS011;22760;51.910;4.474;2022-07-24T13:09:17;4.47;;;2.30;;
36815;SDS011;22760;51.910;4.474;2022-07-24T13:11:45;4.45;;;2.25;;
36815;SDS011;22760;51.910;4.474;2022-07-24T13:14:13;4.13;;;2.42;;
36815;SDS011;22760;51.910;4.474;2022-07-24T13:16:41;4.35;;;2.53;;
36815;SDS011;22760;51.910;4.474;2022-07-24T13:19:10;5.22;;;2.50;;
36815;SDS011;22760;51.910;4.474;2022-07-24T13:21:37;2.80;;;2.00;;
36815;SDS011;22760;51.910;4.474;2022-07-24T13:24:07;4.28;;;2.00;;
36815;SDS011;22760;51.910;4.474;2022-07-24T13:26:35;5.90;;;2.83;;
36815;SDS011;22760;51.910;4.474;2022-07-24T13:29:04;3.05;;;2.15;;
36815;SDS011;22760;51.910;4.474;2022-07-24T13:31:31;8.35;;;2.80;;
36815;SDS011;22760;51.910;4.474;2022-07-24T13:33:58;5.10;;;2.65;;
36815;SDS011;22760;51.910;4.474;2022-07-24T13:36:25;3.50;;;2.40;;
36815;SDS011;22760;51.910;4.474;2022-07-24T13:38:52;5.50;;;1.92;;
36815;SDS011;22760;51.910;4.474;2022-07-24T13:41:20;4.40;;;2.58;;
36815;SDS011;22760;51.910;4.474;2022-07-24T13:43:48;3.42;;;2.40;;
36815;SDS011;22760;51.910;4.474;2022-07-24T13:46:15;4.13;;;2.47;;
36815;SDS011;22760;51.910;4.474;2022-07-24T13:48:43;3.33;;;2.13;;
36815;SDS011;22760;51.910;4.474;2022-07-24T13:51:10;4.50;;;2.40;;
36815;SDS011;22760;51.910;4.474;2022-07-24T13:53:37;4.50;;;2.28;;
36815;SDS011;22760;51.910;4.474;2022-07-24T13:56:04;4.30;;;2.10;;
36815;SDS011;22760;51.910;4.474;2022-07-24T13:58:33;6.68;;;2.85;;
36815;SDS011;22760;51.910;4.474;2022-07-24T14:01:01;5.68;;;2.83;;
36815;SDS011;22760;51.910;4.474;2022-07-24T14:03:28;6.95;;;2.97;;
36815;SDS011;22760;51.910;4.474;2022-07-24T14:05:55;3.65;;;1.95;;
36815;SDS011;22760;51.910;4.474;2022-07-24T14:08:22;3.78;;;2.55;;
36815;SDS011;22760;51.910;4.474;2022-07-24T14:10:48;7.22;;;2.50;;
36815;SDS011;22760;51.910;4.474;2022-07-24T14:13:15;4.95;;;2.40;;
36815;SDS011;22760;51.910;4.474;2022-07-24T14:15:43;5.07;;;2.58;;
36815;SDS011;22760;51.910;4.474;2022-07-24T14:18:10;7.32;;;2.45;;
36815;SDS011;22760;51.910;4.474;2022-07-24T14:20:37;5.45;;;2.28;;
36815;SDS011;22760;51.910;4.474;2022-07-24T14:23:04;4.55;;;2.30;;
36815;SDS011;22760;51.910;4.474;2022-07-24T14:25:31;5.35;;;2.10;;
36815;SDS011;22760;51.910;4.474;2022-07-24T14:27:58;4.40;;;2.20;;
36815;SDS011;22760;51.910;4.474;2022-07-24T14:30:25;4.10;;;2.35;;
36815;SDS011;22760;51.910;4.474;2022-07-24T14:32:53;4.93;;;2.05;;
36815;SDS011;22760;51.910;4.474;2022-07-24T14:35:20;6.10;;;2.47;;
36815;SDS011;22760;51.910;4.474;2022-07-24T14:37:47;5.53;;;2.25;;
36815;SDS011;22760;51.910;4.474;2022-07-24T14:40:13;4.78;;;2.40;;
36815;SDS011;22760;51.910;4.474;2022-07-24T14:42:40;4.30;;;2.20;;
36815;SDS011;22760;51.910;4.474;2022-07-24T14:45:07;14.48;;;2.97;;
36815;SDS011;22760;51.910;4.474;2022-07-24T14:47:35;5.55;;;2.35;;
36815;SDS011;22760;51.910;4.474;2022-07-24T14:50:05;4.43;;;2.70;;
36815;SDS011;22760;51.910;4.474;2022-07-24T14:52:32;5.80;;;3.17;;
36815;SDS011;22760;51.910;4.474;2022-07-24T14:54:59;9.32;;;3.30;;
36815;SDS011;22760;51.910;4.474;2022-07-24T14:57:26;5.30;;;2.90;;
36815;SDS011;22760;51.910;4.474;2022-07-24T14:59:53;6.07;;;2.90;;
36815;SDS011;22760;51.910;4.474;2022-07-24T15:02:19;5.70;;;3.03;;